createdAt,value
2018-05-23T00:00:48.899Z,58.20
2018-05-23T00:04:52.203Z,58.30
2018-05-23T00:08:55.503Z,58.30
2018-05-23T00:12:58.799Z,57.50
2018-05-23T00:17:02.083Z,57.60
2018-05-23T00:21:04.636Z,57.60
2018-05-23T00:25:07.176Z,57.70
2018-05-23T00:29:10.478Z,57.30
2018-05-23T00:33:13.783Z,57.70
2018-05-23T00:37:16.291Z,57.70
2018-05-23T00:41:19.623Z,58.10
2018-05-23T00:45:22.157Z,57.80
2018-05-23T00:49:24.697Z,57.30
2018-05-23T00:53:27.236Z,58.20
2018-05-23T00:57:30.507Z,57.40
2018-05-23T01:01:33.045Z,57.40
2018-05-23T01:05:35.576Z,57.40
2018-05-23T01:09:38.122Z,57.20
2018-05-23T01:13:40.657Z,58.20
2018-05-23T01:17:43.173Z,57.60
2018-05-23T01:21:45.717Z,57.10
2018-05-23T01:25:48.265Z,57.50
2018-05-23T01:29:50.800Z,56.70
2018-05-23T01:33:54.105Z,56.80
2018-05-23T01:37:56.624Z,56.80
2018-05-23T01:41:59.164Z,59.60
2018-05-23T01:46:01.706Z,57.50
2018-05-23T01:50:04.252Z,57.00
2018-05-23T01:54:06.800Z,56.80
2018-05-23T01:58:09.312Z,57.40
2018-05-23T02:02:11.861Z,57.30
2018-05-23T02:06:14.396Z,57.90
2018-05-23T02:10:16.963Z,57.00
2018-05-23T02:14:19.521Z,56.40
2018-05-23T02:18:22.057Z,56.90
2018-05-23T02:22:24.577Z,58.10
2018-05-23T02:26:27.116Z,57.00
2018-05-23T02:30:29.657Z,57.50
2018-05-23T02:34:32.196Z,56.50
2018-05-23T02:38:34.746Z,56.50
2018-05-23T02:42:37.265Z,57.30
2018-05-23T02:46:39.805Z,57.20
2018-05-23T02:50:42.340Z,57.00
2018-05-23T02:54:44.879Z,57.30
2018-05-23T02:58:47.424Z,56.70
2018-05-23T03:02:49.971Z,57.20
2018-05-23T03:06:52.512Z,57.20
2018-05-23T03:10:55.052Z,56.90
2018-05-23T03:14:57.587Z,57.20
2018-05-23T03:19:00.133Z,57.30
2018-05-23T03:23:02.656Z,56.80
2018-05-23T03:27:05.197Z,56.90
2018-05-23T03:31:07.740Z,56.90
2018-05-23T03:35:10.287Z,57.10
2018-05-23T03:39:12.840Z,56.80
2018-05-23T03:43:15.365Z,57.20
2018-05-23T03:47:17.909Z,57.30
2018-05-23T03:51:20.467Z,57.20
2018-05-23T03:55:23.084Z,57.20
2018-05-23T03:59:37.291Z,57.30
2018-05-23T04:03:51.396Z,57.50
2018-05-23T04:07:53.928Z,57.30
2018-05-23T04:11:56.464Z,57.70
2018-05-23T04:15:59.021Z,57.10
2018-05-23T04:20:01.552Z,57.80
2018-05-23T04:24:04.111Z,58.20
2018-05-23T04:28:06.657Z,57.90
2018-05-23T04:32:09.200Z,57.60
2018-05-23T04:36:11.749Z,56.90
2018-05-23T04:40:14.295Z,57.30
2018-05-23T04:44:16.820Z,58.70
2018-05-23T04:48:19.361Z,58.00
2018-05-23T04:52:21.901Z,58.20
2018-05-23T04:56:24.438Z,58.30
2018-05-23T05:00:26.978Z,59.40
2018-05-23T05:04:30.277Z,57.60
2018-05-23T05:08:32.799Z,57.60
2018-05-23T05:12:35.343Z,58.60
2018-05-23T05:16:37.880Z,58.70
2018-05-23T05:20:40.436Z,57.60
2018-05-23T05:24:42.980Z,57.90
2018-05-23T05:28:45.505Z,57.30
2018-05-23T05:32:48.045Z,57.80
2018-05-23T05:36:50.579Z,59.00
2018-05-23T05:40:53.117Z,60.20
2018-05-23T05:44:55.663Z,57.40
2018-05-23T05:48:58.188Z,58.00
2018-05-23T05:53:00.724Z,57.10
2018-05-23T05:57:03.260Z,57.60
2018-05-23T06:01:05.806Z,57.10
2018-05-23T06:05:08.352Z,57.60
2018-05-23T06:09:10.937Z,58.70
2018-05-23T06:13:13.436Z,57.60
2018-05-23T06:17:15.969Z,58.20
2018-05-23T06:21:18.512Z,57.90
2018-05-23T06:25:21.048Z,58.10
2018-05-23T06:29:23.568Z,57.60
2018-05-23T06:33:26.872Z,57.10
2018-05-23T06:37:29.403Z,57.00
2018-05-23T06:41:31.944Z,58.00
2018-05-23T06:45:34.486Z,58.60
2018-05-23T06:49:37.003Z,58.00
2018-05-23T06:53:39.549Z,57.70
2018-05-23T06:57:42.092Z,56.90
2018-05-23T07:01:44.633Z,57.10
2018-05-23T07:05:47.200Z,56.90
2018-05-23T07:09:49.709Z,57.40
2018-05-23T07:13:52.248Z,56.60
2018-05-23T07:17:54.904Z,57.90
2018-05-23T07:21:58.106Z,58.80
2018-05-23T07:26:00.645Z,58.60
2018-05-23T07:30:03.168Z,57.90
2018-05-23T07:34:06.473Z,56.90
2018-05-23T07:38:09.780Z,57.00
2018-05-23T07:42:12.332Z,57.00
2018-05-23T07:46:14.872Z,57.90
2018-05-23T07:50:17.389Z,57.00
2018-05-23T07:54:19.924Z,57.50
2018-05-23T07:58:22.456Z,57.70
2018-05-23T08:02:24.984Z,57.60
2018-05-23T08:06:28.288Z,57.10
2018-05-23T08:10:30.841Z,57.10
2018-05-23T08:14:33.368Z,57.30
2018-05-23T08:18:35.908Z,57.00
2018-05-23T08:22:38.509Z,57.10
2018-05-23T08:26:41.000Z,57.20
2018-05-23T08:30:43.536Z,57.60
2018-05-23T08:34:46.066Z,57.40
2018-05-23T08:38:48.616Z,56.90
2018-05-23T08:42:51.148Z,57.40
2018-05-23T08:46:53.684Z,57.00
2018-05-23T08:50:56.228Z,56.80
2018-05-23T08:54:59.507Z,56.40
2018-05-23T08:59:02.041Z,56.40
2018-05-23T09:03:04.576Z,56.10
2018-05-23T09:07:07.117Z,56.40
2018-05-23T09:11:09.648Z,55.80
2018-05-23T09:15:12.168Z,56.00
2018-05-23T09:19:14.708Z,55.60
2018-05-23T09:23:17.247Z,55.60
2018-05-23T09:27:19.779Z,53.80
2018-05-23T09:31:22.316Z,55.50
2018-05-23T09:35:24.833Z,55.30
2018-05-23T09:39:27.381Z,54.80
2018-05-23T09:43:29.916Z,54.70
2018-05-23T09:47:32.453Z,54.50
2018-05-23T09:51:34.988Z,53.00
2018-05-23T09:55:37.504Z,54.30
2018-05-23T09:59:40.040Z,53.70
2018-05-23T10:03:42.576Z,54.20
2018-05-23T10:07:45.112Z,54.20
2018-05-23T10:11:47.651Z,54.10
2018-05-23T10:15:50.166Z,54.50
2018-05-23T10:19:52.704Z,53.10
2018-05-23T10:23:55.244Z,53.50
2018-05-23T10:27:57.785Z,54.30
2018-05-23T10:32:00.311Z,53.10
2018-05-23T10:36:02.828Z,53.10
2018-05-23T10:40:05.376Z,52.80
2018-05-23T10:44:07.904Z,50.70
2018-05-23T10:48:10.448Z,52.60
2018-05-23T10:52:12.996Z,52.00
2018-05-23T10:56:15.545Z,52.40
2018-05-23T11:00:18.082Z,52.60
2018-05-23T11:04:20.617Z,51.90
2018-05-23T11:08:23.163Z,52.70
2018-05-23T11:12:25.708Z,53.00
2018-05-23T11:16:28.241Z,52.60
2018-05-23T11:20:30.768Z,52.30
2018-05-23T11:24:34.083Z,50.40
2018-05-23T11:28:36.634Z,50.30
2018-05-23T11:32:39.172Z,52.00
2018-05-23T11:36:41.708Z,52.10
2018-05-23T11:40:44.236Z,50.90
2018-05-23T11:44:46.768Z,52.30
2018-05-23T11:48:49.305Z,51.70
2018-05-23T11:52:51.840Z,51.60
2018-05-23T11:56:54.363Z,51.30
2018-05-23T12:00:56.895Z,51.20
2018-05-23T12:04:59.429Z,51.10
2018-05-23T12:09:01.972Z,51.30
2018-05-23T12:13:04.511Z,51.70
2018-05-23T12:17:07.061Z,49.00
2018-05-23T12:21:09.574Z,51.30
2018-05-23T12:25:12.141Z,49.90
2018-05-23T12:29:15.446Z,49.90
2018-05-23T12:33:17.981Z,49.90
2018-05-23T12:37:20.524Z,50.00
2018-05-23T12:41:23.056Z,49.50
2018-05-23T12:45:25.593Z,49.00
2018-05-23T12:49:28.127Z,48.10
2018-05-23T12:53:30.665Z,48.70
2018-05-23T12:57:33.201Z,48.60
2018-05-23T13:01:35.732Z,50.80
2018-05-23T13:05:38.273Z,51.00
2018-05-23T13:09:40.816Z,46.30
2018-05-23T13:13:43.358Z,48.90
2018-05-23T13:17:45.971Z,49.30
2018-05-23T13:21:48.459Z,48.10
2018-05-23T13:25:51.848Z,46.30
2018-05-23T13:29:54.337Z,46.00
2018-05-23T13:33:56.889Z,47.50
2018-05-23T13:37:59.437Z,47.60
2018-05-23T13:42:01.967Z,48.00
2018-05-23T13:46:04.512Z,47.80
2018-05-23T13:50:07.060Z,47.30
2018-05-23T13:54:09.596Z,48.60
2018-05-23T13:58:12.144Z,48.50
2018-05-23T14:02:14.673Z,46.20
2018-05-23T14:06:17.221Z,47.50
2018-05-23T14:10:19.764Z,44.90
2018-05-23T14:14:22.301Z,44.40
2018-05-23T14:18:24.840Z,46.40
2018-05-23T14:22:27.393Z,46.20
2018-05-23T14:26:31.044Z,43.50
2018-05-23T14:30:33.591Z,44.40
2018-05-23T14:34:36.949Z,45.10
2018-05-23T14:38:39.504Z,46.40
2018-05-23T14:42:42.046Z,47.00
2018-05-23T14:46:44.564Z,46.20
2018-05-23T14:50:47.096Z,41.90
2018-05-23T14:54:49.647Z,45.50
2018-05-23T14:58:52.196Z,46.50
2018-05-23T15:02:54.741Z,43.90
2018-05-23T15:06:57.264Z,43.90
2018-05-23T15:10:59.801Z,43.20
2018-05-23T15:15:02.350Z,43.40
2018-05-23T15:19:04.885Z,41.60
2018-05-23T15:23:07.421Z,41.60
2018-05-23T15:27:09.973Z,47.10
2018-05-23T15:31:12.501Z,41.70
2018-05-23T15:35:15.056Z,44.90
2018-05-23T15:39:17.607Z,41.80
2018-05-23T15:43:20.140Z,42.00
2018-05-23T15:47:22.661Z,44.90
2018-05-23T15:51:25.205Z,43.70
2018-05-23T15:55:27.740Z,43.00
2018-05-23T15:59:30.286Z,42.30
2018-05-23T16:03:32.825Z,43.30
2018-05-23T16:07:35.345Z,40.50
2018-05-23T16:11:37.900Z,44.20
2018-05-23T16:15:40.448Z,44.40
2018-05-23T16:19:42.981Z,44.80
2018-05-23T16:23:45.520Z,44.60
2018-05-23T16:27:48.809Z,43.60
2018-05-23T16:31:51.347Z,43.40
2018-05-23T16:35:53.896Z,42.60
2018-05-23T16:39:56.445Z,43.10
2018-05-23T16:43:58.998Z,43.60
2018-05-23T16:48:01.520Z,42.10
2018-05-23T16:52:04.079Z,41.50
2018-05-23T16:56:06.624Z,43.20
2018-05-23T17:00:09.163Z,40.60
2018-05-23T17:04:11.712Z,41.90
2018-05-23T17:08:14.256Z,42.60
2018-05-23T17:12:16.785Z,42.80
2018-05-23T17:16:19.325Z,41.50
2018-05-23T17:20:21.872Z,43.50
2018-05-23T17:24:24.412Z,42.90
2018-05-23T17:28:26.968Z,42.00
2018-05-23T17:32:29.493Z,40.30
2018-05-23T17:36:32.053Z,42.80
2018-05-23T17:40:34.592Z,42.20
2018-05-23T17:44:37.132Z,41.90
2018-05-23T17:48:39.680Z,42.90
2018-05-23T17:52:42.204Z,40.90
2018-05-23T17:56:44.735Z,42.10
2018-05-23T18:00:47.273Z,41.20
2018-05-23T18:04:49.817Z,43.10
2018-05-23T18:08:52.361Z,43.60
2018-05-23T18:12:54.893Z,44.00
2018-05-23T18:16:57.454Z,44.60
2018-05-23T18:20:59.989Z,44.90
2018-05-23T18:25:02.541Z,45.10
2018-05-23T18:29:05.083Z,44.50
2018-05-23T18:33:07.614Z,45.70
2018-05-23T18:37:10.166Z,45.40
2018-05-23T18:41:12.712Z,45.50
2018-05-23T18:45:15.262Z,45.60
2018-05-23T18:49:17.865Z,45.10
2018-05-23T18:53:20.366Z,45.70
2018-05-23T18:57:22.920Z,46.40
2018-05-23T19:01:25.477Z,45.50
2018-05-23T19:05:28.059Z,45.70
2018-05-23T19:09:30.572Z,46.40
2018-05-23T19:13:33.108Z,46.20
2018-05-23T19:17:35.669Z,46.40
2018-05-23T19:21:38.205Z,46.60
2018-05-23T19:25:40.751Z,46.60
2018-05-23T19:29:43.320Z,47.00
2018-05-23T19:33:45.860Z,46.80
2018-05-23T19:37:48.403Z,47.20
2018-05-23T19:41:50.959Z,47.30
2018-05-23T19:45:53.508Z,47.20
2018-05-23T19:49:56.876Z,47.30
2018-05-23T19:53:59.409Z,47.40
2018-05-23T19:58:01.942Z,47.50
2018-05-23T20:02:04.497Z,47.50
2018-05-23T20:06:07.046Z,47.80
2018-05-23T20:10:10.361Z,47.90
2018-05-23T20:14:12.991Z,47.80
2018-05-23T20:18:15.444Z,47.90
2018-05-23T20:22:17.980Z,48.10
2018-05-23T20:26:20.539Z,48.40
2018-05-23T20:30:23.086Z,48.60
2018-05-23T20:34:25.638Z,48.50
2018-05-23T20:38:28.177Z,48.70
2018-05-23T20:42:30.720Z,48.90
2018-05-23T20:46:33.272Z,49.10
2018-05-23T20:50:35.807Z,49.20
2018-05-23T20:54:38.362Z,49.10
2018-05-23T20:58:41.022Z,48.90
2018-05-23T21:02:43.437Z,49.00
2018-05-23T21:06:45.983Z,49.10
2018-05-23T21:10:48.524Z,48.80
2018-05-23T21:14:51.067Z,49.00
2018-05-23T21:18:53.596Z,49.30
2018-05-23T21:22:56.140Z,49.80
2018-05-23T21:26:58.683Z,49.10
2018-05-23T21:31:01.228Z,49.20
2018-05-23T21:35:03.845Z,49.10
2018-05-23T21:39:06.312Z,49.10
2018-05-23T21:43:08.844Z,49.20
2018-05-23T21:47:11.384Z,48.90
2018-05-23T21:51:13.920Z,49.10
2018-05-23T21:55:16.462Z,49.10
2018-05-23T21:59:18.968Z,49.20
2018-05-23T22:03:21.501Z,49.30
2018-05-23T22:07:24.042Z,49.30
2018-05-23T22:11:26.573Z,49.40
2018-05-23T22:15:29.116Z,49.40
2018-05-23T22:19:31.645Z,49.50
2018-05-23T22:23:34.183Z,49.50
2018-05-23T22:27:36.711Z,49.70
2018-05-23T22:31:39.248Z,49.90
2018-05-23T22:35:41.789Z,49.90
2018-05-23T22:39:44.304Z,49.80
2018-05-23T22:43:46.833Z,49.80
2018-05-23T22:47:49.372Z,50.10
2018-05-23T22:51:51.912Z,50.20
2018-05-23T22:55:54.444Z,50.40
2018-05-23T22:59:56.972Z,50.30
2018-05-23T23:03:59.484Z,50.30
2018-05-23T23:08:02.021Z,50.90
2018-05-23T23:12:04.564Z,50.80
2018-05-23T23:16:07.102Z,50.60
2018-05-23T23:20:09.644Z,50.40
2018-05-23T23:24:12.261Z,51.60
2018-05-23T23:28:14.797Z,50.40
2018-05-23T23:32:18.097Z,50.40
2018-05-23T23:36:20.647Z,50.40
2018-05-23T23:40:23.185Z,51.00
2018-05-23T23:44:25.708Z,51.00
2018-05-23T23:48:28.241Z,51.30
2018-05-23T23:52:30.777Z,52.00
2018-05-23T23:56:33.311Z,50.50
